Time;durP1;ratioP1;P1;durP2;ratioP2;P2;SDS_P1;SDS_P2;PMS_P1;PMS_P2;Temp;Humidity;BMP_temperature;BMP_pressure;BME280_temperature;BME280_humidity;BME280_pressure;Samples;Min_cycle;Max_cycle;Signal;HPM_P1;HPM_P2
2022/06/10 00:02:05;;;;;;;3.20;2.20;;;;;;;12.55;100.00;98716.31;5055749;28;20235;-70
2022/06/10 00:04:32;;;;;;;4.73;2.60;;;;;;;12.54;100.00;98710.16;5055761;28;20213;-70
2022/06/10 00:06:59;;;;;;;6.57;2.90;;;;;;;12.50;100.00;98713.13;5055894;28;20261;-70
2022/06/10 00:09:27;;;;;;;3.80;2.53;;;;;;;12.48;100.00;98710.56;5054020;28;20208;-70
2022/06/10 00:11:53;;;;;;;3.90;2.50;;;;;;;12.53;100.00;98718.22;5055677;28;20252;-71
2022/06/10 00:14:20;;;;;;;3.60;2.77;;;;;;;12.55;100.00;98717.19;5055479;28;20211;-71
2022/06/10 00:16:46;;;;;;;3.43;3.03;;;;;;;12.56;100.00;98710.91;5055551;28;20212;-70
2022/06/10 00:19:13;;;;;;;3.43;2.70;;;;;;;12.58;100.00;98716.09;5055548;28;20212;-70
2022/06/10 00:21:39;;;;;;;4.10;2.70;;;;;;;12.53;100.00;98712.94;5055502;28;20216;-70
2022/06/10 00:24:07;;;;;;;2.50;2.30;;;;;;;12.49;100.00;98711.44;5055208;28;20216;-70
2022/06/10 00:26:35;;;;;;;4.13;2.40;;;;;;;12.46;100.00;98706.34;5055460;28;20215;-70
2022/06/10 00:29:03;;;;;;;4.83;2.70;;;;;;;12.39;100.00;98712.97;5055528;28;20224;-71
2022/06/10 00:31:29;;;;;;;3.27;2.50;;;;;;;12.41;100.00;98724.34;5055362;28;20234;-70
2022/06/10 00:33:56;;;;;;;3.30;2.70;;;;;;;12.41;100.00;98719.06;5052801;28;20622;-70
2022/06/10 00:36:23;;;;;;;4.07;3.00;;;;;;;12.41;100.00;98714.59;5055112;28;20219;-70
2022/06/10 00:38:50;;;;;;;5.10;2.67;;;;;;;12.41;100.00;98717.22;5055596;28;20249;-70
2022/06/10 00:41:16;;;;;;;3.77;2.70;;;;;;;12.42;100.00;98715.44;5054894;28;20231;-70
2022/06/10 00:43:44;;;;;;;3.97;2.53;;;;;;;12.44;100.00;98711.75;5054842;28;20673;-70
2022/06/10 00:46:21;;;;;;;4.73;3.00;;;;;;;12.37;100.00;98707.81;5055108;28;20220;-70
2022/06/10 00:48:51;;;;;;;3.53;2.77;;;;;;;12.36;100.00;98716.69;5055145;28;20235;-70
2022/06/10 00:51:22;;;;;;;4.73;2.70;;;;;;;12.29;100.00;98715.41;5054751;28;20578;-70
2022/06/10 00:53:53;;;;;;;6.67;2.90;;;;;;;12.23;100.00;98715.81;5055095;28;20219;-70
2022/06/10 00:56:24;;;;;;;2.90;2.60;;;;;;;12.18;100.00;98717.91;5054796;28;20217;-71
2022/06/10 00:58:56;;;;;;;4.93;2.60;;;;;;;12.09;100.00;98709.72;5054601;28;20298;-71
2022/06/10 01:01:23;;;;;;;3.03;2.50;;;;;;;12.05;100.00;98717.03;5053301;28;20216;-70
2022/06/10 01:03:51;;;;;;;3.43;2.67;;;;;;;12.03;100.00;98715.44;5050744;28;20702;-70
2022/06/10 01:06:18;;;;;;;4.70;2.47;;;;;;;12.02;100.00;98719.91;5054925;28;20210;-70
2022/06/10 01:08:47;;;;;;;5.83;2.70;;;;;;;11.98;100.00;98715.75;5054745;28;20583;-70
2022/06/10 01:11:43;;;;;;;3.63;2.50;;;;;;;12.02;100.00;98722.53;5054658;28;20232;-70
2022/06/10 01:14:27;;;;;;;3.07;2.40;;;;;;;12.03;100.00;98720.72;5042712;28;20213;-70
2022/06/10 01:17:02;;;;;;;3.00;2.57;;;;;;;12.01;100.00;98725.28;5054548;28;20215;-70
2022/06/10 01:20:02;;;;;;;2.83;2.30;;;;;;;12.00;100.00;98720.94;5054777;28;20213;-70
2022/06/10 01:23:07;;;;;;;3.13;2.67;;;;;;;11.93;100.00;98722.31;5035921;28;20219;-70
2022/06/10 01:26:04;;;;;;;4.10;2.40;;;;;;;11.85;100.00;98722.78;5050758;28;20219;-70
2022/06/10 01:28:50;;;;;;;3.10;2.30;;;;;;;11.80;100.00;98722.22;5054302;28;20221;-70
2022/06/10 01:31:23;;;;;;;3.03;2.50;;;;;;;11.78;100.00;98723.28;5054461;28;20267;-71
2022/06/10 01:34:05;;;;;;;5.57;2.73;;;;;;;11.79;100.00;98725.00;5054526;28;20217;-71
2022/06/10 01:36:42;;;;;;;4.27;2.80;;;;;;;11.72;100.00;98728.97;5054123;28;20219;-70
2022/06/10 01:39:18;;;;;;;2.60;2.40;;;;;;;11.70;100.00;98726.44;5054017;28;20217;-70
2022/06/10 01:41:52;;;;;;;4.13;2.70;;;;;;;11.70;100.00;98726.44;5042315;28;20221;-70
2022/06/10 01:44:28;;;;;;;4.13;2.67;;;;;;;11.70;100.00;98730.88;5053835;28;20220;-70
2022/06/10 01:47:04;;;;;;;6.90;3.17;;;;;;;11.68;100.00;98727.50;5053264;28;20590;-69
2022/06/10 01:49:37;;;;;;;3.57;2.70;;;;;;;11.66;100.00;98737.31;5053771;28;20212;-70
2022/06/10 01:52:14;;;;;;;4.00;3.00;;;;;;;11.64;100.00;98736.56;5052589;28;20240;-70
2022/06/10 01:54:45;;;;;;;3.53;2.60;;;;;;;11.62;100.00;98735.81;5053894;28;20213;-70
2022/06/10 01:57:18;;;;;;;2.90;2.60;;;;;;;11.59;100.00;98742.16;5053416;28;20680;-70
2022/06/10 01:59:52;;;;;;;2.60;2.30;;;;;;;11.56;100.00;98742.31;5053916;28;20215;-70
2022/06/10 02:02:26;;;;;;;3.57;2.30;;;;;;;11.59;100.00;98728.06;5053337;28;20226;-70
2022/06/10 02:04:59;;;;;;;3.67;2.33;;;;;;;11.55;100.00;98731.84;5049734;28;20215;-70
2022/06/10 02:07:30;;;;;;;2.87;2.20;;;;;;;11.53;100.00;98741.66;5053433;28;20219;-70
2022/06/10 02:10:02;;;;;;;4.17;2.10;;;;;;;11.54;100.00;98738.91;5053625;28;20581;-70
2022/06/10 02:12:32;;;;;;;2.10;1.97;;;;;;;11.52;100.00;98732.88;5053484;28;20240;-70
2022/06/10 02:15:02;;;;;;;3.73;2.27;;;;;;;11.49;100.00;98738.34;5053573;28;20583;-72
2022/06/10 02:17:37;;;;;;;4.23;2.80;;;;;;;11.50;100.00;98739.22;5053638;28;20213;-71
2022/06/10 02:20:06;;;;;;;4.27;2.73;;;;;;;11.50;100.00;98736.56;5051728;28;20208;-72
2022/06/10 02:22:38;;;;;;;3.40;2.90;;;;;;;11.45;100.00;98744.81;5053055;28;20675;-70
2022/06/10 02:25:11;;;;;;;3.60;2.60;;;;;;;11.47;100.00;98745.53;5053690;28;20238;-70
2022/06/10 02:27:39;;;;;;;4.40;2.90;;;;;;;11.49;100.00;98754.22;5053235;28;20216;-70
2022/06/10 02:30:09;;;;;;;2.93;2.37;;;;;;;11.44;100.00;98755.47;5053489;28;20213;-71
2022/06/10 02:32:39;;;;;;;4.03;2.40;;;;;;;11.40;100.00;98754.81;5053234;28;20242;-70
2022/06/10 02:35:08;;;;;;;3.27;2.60;;;;;;;11.35;100.00;98759.56;5053327;28;20223;-71
2022/06/10 02:37:43;;;;;;;3.17;2.87;;;;;;;11.28;100.00;98755.59;5053118;28;20235;-70
2022/06/10 02:40:20;;;;;;;4.60;2.77;;;;;;;11.20;100.00;98768.41;5052754;28;20250;-70
2022/06/10 02:42:53;;;;;;;3.37;3.07;;;;;;;11.13;100.00;98766.28;5041854;28;20221;-70
2022/06/10 02:45:28;;;;;;;4.07;2.93;;;;;;;11.06;100.00;98770.25;5051443;28;20220;-70
2022/06/10 02:48:03;;;;;;;4.77;3.30;;;;;;;11.00;100.00;98765.31;5053137;28;20216;-70
2022/06/10 02:50:30;;;;;;;5.77;3.40;;;;;;;11.05;100.00;98763.22;5052834;28;20226;-70
2022/06/10 02:52:57;;;;;;;4.07;2.90;;;;;;;11.02;100.00;98768.72;5053175;28;20231;-71
2022/06/10 02:55:27;;;;;;;4.40;3.23;;;;;;;11.02;100.00;98763.41;5052756;28;20226;-70
2022/06/10 03:03:43;;;;;;;3.90;3.50;;;;;;;10.89;100.00;98773.06;5052570;28;20296;-70
2022/06/10 03:06:19;;;;;;;4.23;3.50;;;;;;;10.89;100.00;98778.34;5052447;28;20223;-71
2022/06/10 03:08:53;;;;;;;4.97;3.73;;;;;;;10.85;100.00;98774.16;5052760;28;20270;-70
2022/06/10 03:11:32;;;;;;;4.90;3.70;;;;;;;10.85;100.00;98782.09;5051024;28;20221;-71
2022/06/10 03:14:09;;;;;;;5.40;4.00;;;;;;;10.83;100.00;98784.00;5052677;28;20220;-71
2022/06/10 03:16:50;;;;;;;4.80;3.90;;;;;;;10.79;100.00;98782.47;5052753;28;20222;-71
2022/06/10 03:19:31;;;;;;;4.60;4.20;;;;;;;10.80;100.00;98790.31;5052484;28;20220;-71
2022/06/10 03:22:10;;;;;;;5.83;4.00;;;;;;;10.79;100.00;98793.03;5052657;28;20218;-69
2022/06/10 03:24:43;;;;;;;4.80;3.90;;;;;;;10.82;100.00;98792.88;5052629;28;20226;-70
2022/06/10 03:27:15;;;;;;;4.47;3.93;;;;;;;10.81;100.00;98801.72;5052676;28;20223;-70
2022/06/10 03:29:50;;;;;;;5.70;4.60;;;;;;;10.79;100.00;98793.03;5052369;28;20222;-70
2022/06/10 03:32:26;;;;;;;6.13;4.00;;;;;;;10.84;100.00;98790.97;5052273;28;20270;-70
2022/06/10 03:34:59;;;;;;;6.10;3.77;;;;;;;10.88;100.00;98792.50;5052657;28;20224;-70
2022/06/10 03:37:26;;;;;;;4.80;4.00;;;;;;;10.86;100.00;98804.94;5050863;28;20243;-70
2022/06/10 03:39:54;;;;;;;8.53;4.40;;;;;;;10.86;100.00;98800.53;5052329;28;20303;-70
2022/06/10 03:42:23;;;;;;;7.47;4.43;;;;;;;10.89;100.00;98810.91;5052387;28;20213;-70
2022/06/10 03:44:53;;;;;;;5.97;4.30;;;;;;;10.92;100.00;98804.59;5052529;28;20216;-70
2022/06/10 03:47:25;;;;;;;6.27;4.20;;;;;;;10.94;100.00;98810.66;5052498;28;20207;-70
2022/06/10 03:49:57;;;;;;;4.93;4.13;;;;;;;10.98;100.00;98810.38;5052753;28;20215;-69
2022/06/10 03:52:26;;;;;;;5.13;3.87;;;;;;;11.05;100.00;98810.84;5052349;28;20272;-72
2022/06/10 03:54:53;;;;;;;4.67;4.03;;;;;;;11.08;100.00;98815.97;5052347;28;20222;-71
2022/06/10 03:57:19;;;;;;;5.43;4.10;;;;;;;11.11;100.00;98818.41;5052375;28;20216;-71
2022/06/10 03:59:47;;;;;;;5.37;4.10;;;;;;;11.10;100.00;98824.63;5052471;28;20235;-71
2022/06/10 04:02:13;;;;;;;6.33;4.57;;;;;;;11.17;100.00;98823.31;5052450;28;20218;-71
2022/06/10 04:04:42;;;;;;;6.47;4.30;;;;;;;11.20;100.00;98825.78;5050839;28;20218;-71
2022/06/10 04:07:10;;;;;;;4.70;3.97;;;;;;;11.25;100.00;98823.72;5052551;28;20216;-70
2022/06/10 04:09:37;;;;;;;5.67;3.50;;;;;;;11.27;100.00;98824.47;5053786;28;20212;-69
2022/06/10 04:12:04;;;;;;;4.23;3.83;;;;;;;11.31;100.00;98828.66;5055768;28;20236;-69
2022/06/10 04:14:31;;;;;;;4.37;3.97;;;;;;;11.35;100.00;98832.78;5055597;28;20216;-70
2022/06/10 04:16:58;;;;;;;6.17;4.00;;;;;;;11.39;100.00;98840.47;5055788;28;20240;-70
2022/06/10 04:19:24;;;;;;;4.43;3.50;;;;;;;11.41;100.00;98845.66;5055573;28;20214;-71
2022/06/10 04:21:51;;;;;;;4.50;3.57;;;;;;;11.50;100.00;98840.63;5055406;28;20672;-69
2022/06/10 04:24:19;;;;;;;4.50;3.63;;;;;;;11.57;100.00;98841.13;5055238;28;20219;-70
2022/06/10 04:26:46;;;;;;;4.53;3.47;;;;;;;11.58;100.00;98848.13;5055403;28;20208;-69
2022/06/10 04:29:14;;;;;;;5.77;3.57;;;;;;;11.60;100.00;98847.13;5054948;28;20228;-69
2022/06/10 04:31:41;;;;;;;4.70;3.33;;;;;;;11.64;100.00;98843.34;5054168;28;20216;-69
2022/06/10 04:34:08;;;;;;;4.43;3.37;;;;;;;11.71;100.00;98843.78;5055149;28;20266;-70
2022/06/10 04:36:35;;;;;;;6.70;3.23;;;;;;;11.77;100.00;98843.41;5055088;28;20219;-71
2022/06/10 04:39:02;;;;;;;5.77;3.50;;;;;;;11.85;100.00;98843.75;5055424;28;20213;-71
2022/06/10 04:41:30;;;;;;;3.60;3.17;;;;;;;11.92;100.00;98847.75;5055191;28;20684;-71
2022/06/10 04:43:57;;;;;;;3.37;3.07;;;;;;;11.99;100.00;98854.38;5055000;28;20219;-70
2022/06/10 04:46:26;;;;;;;3.90;3.50;;;;;;;12.02;100.00;98852.38;5054953;28;20208;-70
2022/06/10 04:48:54;;;;;;;4.43;3.47;;;;;;;12.09;100.00;98855.47;5054778;28;20595;-70
2022/06/10 04:51:20;;;;;;;5.00;3.30;;;;;;;12.16;100.00;98854.16;5054934;28;20216;-69
2022/06/10 04:53:47;;;;;;;5.10;3.60;;;;;;;12.43;100.00;98855.88;5055058;28;20243;-70
2022/06/10 04:56:13;;;;;;;5.63;3.63;;;;;;;13.16;100.00;98858.00;5053438;28;20581;-71
2022/06/10 04:58:41;;;;;;;5.03;3.40;;;;;;;13.58;100.00;98859.50;5055065;28;20225;-71
2022/06/10 05:01:08;;;;;;;3.03;2.77;;;;;;;14.24;100.00;98854.75;5054854;28;20219;-70
2022/06/10 05:03:36;;;;;;;3.90;2.50;;;;;;;15.14;100.00;98859.38;5054563;28;20224;-71
2022/06/10 05:06:02;;;;;;;6.07;2.67;;;;;;;16.08;95.44;98863.53;5054860;28;20554;-71
2022/06/10 05:08:29;;;;;;;4.83;2.63;;;;;;;16.88;89.63;98856.81;5054539;28;20570;-71
2022/06/10 05:10:55;;;;;;;4.60;2.83;;;;;;;17.62;83.30;98864.69;5054688;28;20234;-70
2022/06/10 05:13:22;;;;;;;2.93;2.73;;;;;;;18.26;80.52;98863.44;5054599;28;20293;-70
2022/06/10 05:15:50;;;;;;;3.23;2.53;;;;;;;18.83;75.85;98860.91;5054391;28;20684;-71
2022/06/10 05:18:20;;;;;;;4.10;2.50;;;;;;;19.46;72.74;98862.19;5054747;28;20218;-70
2022/06/10 05:20:47;;;;;;;3.00;2.27;;;;;;;19.98;68.14;98859.78;5054396;28;20230;-70
2022/06/10 05:23:16;;;;;;;3.53;2.40;;;;;;;20.37;65.42;98865.88;5052505;28;20227;-69
2022/06/10 05:25:43;;;;;;;2.97;2.30;;;;;;;20.80;63.20;98872.22;5054313;28;20219;-69
2022/06/10 05:28:11;;;;;;;3.17;2.17;;;;;;;21.21;60.68;98879.72;5054513;28;20236;-70
2022/06/10 05:30:38;;;;;;;2.97;1.83;;;;;;;21.58;59.09;98883.06;5054433;28;20212;-69
2022/06/10 05:33:07;;;;;;;3.13;2.10;;;;;;;21.91;57.29;98881.47;5054135;28;20270;-70
2022/06/10 05:35:34;;;;;;;2.50;2.13;;;;;;;22.21;56.49;98884.53;5054556;28;20599;-71
2022/06/10 05:38:02;;;;;;;2.43;1.70;;;;;;;22.41;54.13;98880.59;5054042;28;20236;-70
2022/06/10 05:40:30;;;;;;;3.13;2.33;;;;;;;22.60;53.75;98882.19;5054283;28;20228;-70
2022/06/10 05:42:57;;;;;;;2.30;2.10;;;;;;;22.83;53.58;98881.44;5053897;28;20673;-70
2022/06/10 05:45:25;;;;;;;3.47;2.50;;;;;;;23.08;51.91;98885.88;5054010;28;20216;-71
2022/06/10 05:47:55;;;;;;;4.70;2.13;;;;;;;23.30;51.15;98882.56;5052876;28;20219;-69
2022/06/10 05:50:29;;;;;;;2.47;1.80;;;;;;;23.47;50.25;98884.25;5053630;28;20216;-69
2022/06/10 05:52:55;;;;;;;3.03;1.90;;;;;;;23.68;50.21;98890.00;5049020;28;20698;-70
2022/06/10 05:55:23;;;;;;;4.50;2.40;;;;;;;23.94;49.16;98885.25;5052628;28;20215;-70
2022/06/10 05:57:51;;;;;;;4.03;2.10;;;;;;;24.03;48.55;98895.03;5053049;28;20220;-70
2022/06/10 06:00:22;;;;;;;4.13;2.20;;;;;;;24.16;48.00;98889.09;5053240;28;20216;-71
2022/06/10 06:02:48;;;;;;;7.07;2.30;;;;;;;24.40;47.32;98898.00;5049263;28;20212;-71
2022/06/10 06:05:15;;;;;;;4.40;2.30;;;;;;;24.59;46.97;98891.34;5041006;28;20220;-71
2022/06/10 06:07:44;;;;;;;2.70;2.10;;;;;;;24.66;46.08;98895.03;5053338;28;20219;-69
2022/06/10 06:10:14;;;;;;;3.20;2.10;;;;;;;24.73;46.22;98896.84;5053594;28;20645;-70
2022/06/10 06:12:40;;;;;;;3.17;2.23;;;;;;;25.02;45.60;98894.34;5053429;28;20242;-70
2022/06/10 06:15:08;;;;;;;3.07;2.17;;;;;;;25.25;44.86;98900.66;5051843;28;20225;-70
2022/06/10 06:17:35;;;;;;;4.73;2.70;;;;;;;25.37;43.75;98901.88;5053924;28;20226;-75
2022/06/10 06:20:03;;;;;;;2.13;1.87;;;;;;;25.38;44.01;98909.00;5053994;28;20548;-76
2022/06/10 06:22:29;;;;;;;2.67;2.07;;;;;;;25.53;44.40;98915.31;5054059;28;20552;-76
2022/06/10 06:24:57;;;;;;;3.07;2.10;;;;;;;25.59;42.81;98911.88;5053661;28;20557;-76
2022/06/10 06:27:24;;;;;;;3.93;2.30;;;;;;;25.54;43.11;98908.88;5053982;28;20216;-77
2022/06/10 06:29:50;;;;;;;4.03;2.33;;;;;;;25.34;43.50;98904.97;5053473;28;20213;-76
2022/06/10 06:32:17;;;;;;;3.03;2.07;;;;;;;25.66;43.53;98918.25;5052868;28;20208;-75
2022/06/10 06:34:44;;;;;;;3.80;2.03;;;;;;;25.95;43.06;98914.81;5053736;28;20237;-76
2022/06/10 06:37:15;;;;;;;2.50;2.10;;;;;;;26.11;42.67;98909.25;5053845;28;20250;-75
2022/06/10 06:39:42;;;;;;;4.30;2.17;;;;;;;26.04;42.10;98911.84;5052782;28;20212;-76
2022/06/10 06:42:12;;;;;;;2.47;2.03;;;;;;;26.02;42.26;98911.19;5052863;28;20212;-76
2022/06/10 06:44:40;;;;;;;2.50;1.87;;;;;;;26.22;42.05;98916.94;5053194;28;20204;-76
2022/06/10 06:47:07;;;;;;;4.40;2.00;;;;;;;26.20;41.66;98919.81;5053498;28;20302;-76
2022/06/10 06:49:34;;;;;;;5.40;2.20;;;;;;;26.12;41.40;98928.03;5053472;28;20303;-76
2022/06/10 06:52:00;;;;;;;2.73;1.80;;;;;;;26.24;41.65;98920.28;5053117;28;20212;-76
2022/06/10 06:54:28;;;;;;;4.23;1.87;;;;;;;26.31;41.74;98924.78;5053645;28;20231;-76
2022/06/10 06:56:57;;;;;;;3.13;2.10;;;;;;;26.20;41.34;98924.41;5053732;28;20258;-76
2022/06/10 06:59:24;;;;;;;3.03;1.90;;;;;;;25.72;41.91;98914.81;5053283;28;20212;-76
2022/06/10 07:01:51;;;;;;;3.57;2.10;;;;;;;25.07;43.61;98913.59;5052875;28;20208;-76
2022/06/10 07:04:18;;;;;;;4.47;2.17;;;;;;;24.96;45.42;98913.97;5053463;28;20212;-76
2022/06/10 07:06:45;;;;;;;3.60;2.10;;;;;;;25.06;45.13;98913.75;5051928;28;20247;-76
2022/06/10 07:09:13;;;;;;;2.43;1.60;;;;;;;24.82;45.66;98914.72;5053181;28;20265;-76
2022/06/10 07:11:41;;;;;;;2.83;1.90;;;;;;;24.06;46.36;98910.91;5052792;28;20713;-76
2022/06/10 07:14:08;;;;;;;5.13;2.13;;;;;;;22.95;50.78;98919.72;5053025;28;20654;-76
2022/06/10 07:16:36;;;;;;;3.33;2.03;;;;;;;21.83;54.53;98919.94;5052854;28;20223;-75
2022/06/10 07:19:03;;;;;;;3.57;2.37;;;;;;;20.84;55.96;98922.00;5053773;28;20211;-76
2022/06/10 07:21:30;;;;;;;5.57;2.60;;;;;;;20.12;59.17;98929.13;5053135;28;20208;-75
2022/06/10 07:23:56;;;;;;;3.13;1.90;;;;;;;19.65;61.98;98924.69;5052772;28;20208;-75
2022/06/10 07:26:23;;;;;;;2.97;2.10;;;;;;;19.49;62.55;98924.41;5052569;28;20214;-75
2022/06/10 07:28:50;;;;;;;6.37;2.50;;;;;;;19.45;64.32;98930.22;5052553;28;20688;-75
2022/06/10 07:31:16;;;;;;;4.53;2.17;;;;;;;19.42;65.90;98922.44;5051485;28;20204;-75
2022/06/10 07:33:44;;;;;;;4.70;2.33;;;;;;;19.43;67.25;98922.31;5052342;28;20243;-75
2022/06/10 07:36:11;;;;;;;3.60;2.17;;;;;;;19.48;69.00;98920.06;5053103;28;20212;-76
2022/06/10 07:38:38;;;;;;;3.57;1.97;;;;;;;19.57;70.60;98921.03;5053332;28;20285;-76
2022/06/10 07:43:48;;;;;;;4.30;2.17;;;;;;;19.79;66.83;98909.97;5054328;28;20219;-75
2022/06/10 07:46:18;;;;;;;3.33;2.03;;;;;;;19.73;67.28;98914.09;5056401;28;20223;-75
2022/06/10 07:48:46;;;;;;;2.97;2.37;;;;;;;19.91;69.49;98911.50;5056584;28;20554;-76
2022/06/10 07:51:13;;;;;;;3.23;1.90;;;;;;;19.98;68.14;98917.97;5056588;28;20217;-75
2022/06/10 07:53:41;;;;;;;2.43;1.90;;;;;;;20.08;66.94;98910.78;5056541;28;20232;-76
2022/06/10 07:56:09;;;;;;;4.47;2.60;;;;;;;20.15;66.62;98906.50;5056254;28;20212;-77
2022/06/10 07:58:36;;;;;;;3.50;2.20;;;;;;;20.19;66.27;98919.47;5054896;28;20291;-75
2022/06/10 08:01:02;;;;;;;3.97;2.40;;;;;;;20.22;65.95;98913.84;5056529;28;20581;-76
2022/06/10 08:03:29;;;;;;;3.13;2.17;;;;;;;20.24;65.58;98900.28;5056579;28;20585;-76
2022/06/10 08:05:59;;;;;;;2.10;1.90;;;;;;;20.28;64.32;98912.38;5056513;28;20215;-76
2022/06/10 08:08:26;;;;;;;3.20;2.00;;;;;;;20.35;63.58;98908.97;5056485;28;20219;-76
2022/06/10 08:10:52;;;;;;;3.53;2.10;;;;;;;20.35;60.39;98902.78;5056222;28;20212;-76
2022/06/10 08:13:19;;;;;;;3.93;2.40;;;;;;;20.34;60.19;98906.44;5056141;28;20607;-76
2022/06/10 08:15:47;;;;;;;3.47;2.23;;;;;;;20.27;61.73;98905.31;5056212;28;20208;-75
2022/06/10 08:18:16;;;;;;;4.63;2.10;;;;;;;20.24;62.38;98905.63;5056620;28;20218;-76
2022/06/10 08:23:31;;;;;;;4.30;2.10;;;;;;;20.32;66.23;98908.41;5054228;28;20230;-75
2022/06/10 08:26:00;;;;;;;5.43;2.20;;;;;;;20.39;62.97;98910.38;5055706;28;20208;-75
2022/06/10 08:28:28;;;;;;;2.50;2.03;;;;;;;20.47;62.28;98906.97;5055933;28;20214;-75
2022/06/10 08:30:55;;;;;;;4.37;2.30;;;;;;;20.59;64.14;98903.91;5055819;28;20211;-77
2022/06/10 08:33:21;;;;;;;3.10;2.03;;;;;;;20.61;62.09;98907.28;5055560;28;20243;-76
2022/06/10 08:35:48;;;;;;;3.83;2.33;;;;;;;20.70;61.29;98903.69;5055849;28;20208;-76
2022/06/10 08:38:17;;;;;;;2.83;1.97;;;;;;;20.79;59.83;98908.16;5055443;28;20236;-77
2022/06/10 08:40:53;;;;;;;4.27;1.87;;;;;;;20.87;62.33;98907.41;5055693;28;20204;-75
2022/06/10 08:43:31;;;;;;;4.07;2.17;;;;;;;20.96;60.59;98899.31;5055951;28;20276;-75
2022/06/10 08:46:07;;;;;;;2.57;2.00;;;;;;;21.08;60.63;98908.03;5055797;28;20221;-78
2022/06/10 08:48:48;;;;;;;4.57;2.30;;;;;;;21.20;62.88;98907.63;5054420;28;20215;-74
2022/06/10 08:51:22;;;;;;;2.80;1.90;;;;;;;21.31;60.47;98903.84;5055626;28;20224;-76
2022/06/10 08:54:09;;;;;;;2.40;1.80;;;;;;;21.28;56.54;98909.56;5055654;28;20242;-75
2022/06/10 08:56:40;;;;;;;4.80;2.10;;;;;;;21.29;57.01;98911.25;5054814;28;20215;-76
2022/06/10 08:59:19;;;;;;;4.53;2.10;;;;;;;21.23;56.90;98912.72;5054911;28;20212;-76
2022/06/10 09:01:52;;;;;;;4.97;1.87;;;;;;;21.30;56.70;98903.03;5055561;28;20212;-76
2022/06/10 09:04:30;;;;;;;4.70;1.80;;;;;;;21.46;54.42;98903.16;5054881;28;20685;-76
2022/06/10 09:07:01;;;;;;;4.97;2.20;;;;;;;21.52;56.21;98897.16;5054859;28;20212;-76
2022/06/10 09:09:30;;;;;;;3.53;2.17;;;;;;;21.54;56.19;98892.47;5055321;28;20215;-77
2022/06/10 09:12:05;;;;;;;5.23;2.47;;;;;;;21.57;54.10;98902.91;5055922;28;20208;-76
2022/06/10 09:14:31;;;;;;;2.53;1.70;;;;;;;21.48;53.45;98898.47;5052779;28;20709;-75
2022/06/10 09:17:05;;;;;;;4.07;2.03;;;;;;;21.32;55.37;98905.53;5054992;28;20685;-76
2022/06/10 09:19:41;;;;;;;3.87;2.17;;;;;;;21.40;60.53;98905.63;5055519;28;20227;-77
2022/06/10 09:22:16;;;;;;;2.13;1.90;;;;;;;21.44;57.61;98905.16;5055108;28;20277;-76
2022/06/10 09:24:48;;;;;;;3.93;2.27;;;;;;;21.59;54.55;98906.28;5054391;28;20218;-76
2022/06/10 09:27:24;;;;;;;3.57;2.20;;;;;;;21.54;53.87;98900.53;5054762;28;20303;-76
2022/06/10 09:29:50;;;;;;;3.67;2.23;;;;;;;21.30;53.43;98903.03;5054493;28;20696;-76
2022/06/10 09:32:26;;;;;;;4.80;2.07;;;;;;;21.26;52.30;98907.00;5054908;28;20204;-78
2022/06/10 09:35:00;;;;;;;4.33;1.80;;;;;;;21.28;53.00;98904.19;5054950;28;20235;-75
2022/06/10 09:37:39;;;;;;;2.83;1.50;;;;;;;21.36;53.46;98907.78;5054526;28;20240;-75
2022/06/10 09:43:11;;;;;;;4.33;1.90;;;;;;;21.50;51.46;98904.53;5054410;28;20215;-76
2022/06/10 09:45:45;;;;;;;4.87;2.20;;;;;;;21.85;54.72;98906.34;5054208;28;20673;-76
2022/06/10 09:48:26;;;;;;;5.40;2.27;;;;;;;22.14;53.83;98902.31;5054561;28;20214;-76
2022/06/10 09:51:01;;;;;;;2.73;1.73;;;;;;;22.38;51.94;98899.75;5054630;28;20208;-76
2022/06/10 09:53:45;;;;;;;5.07;2.00;;;;;;;22.38;48.46;98899.75;5054511;28;20207;-76
2022/06/10 09:56:50;;;;;;;3.60;2.03;;;;;;;22.49;50.36;98899.50;5054715;28;20212;-76
2022/06/10 09:59:30;;;;;;;2.40;1.73;;;;;;;22.63;49.21;98896.22;5044565;28;20218;-76
2022/06/10 10:02:14;;;;;;;5.03;1.80;;;;;;;22.85;50.88;98890.19;5054341;28;20207;-76
2022/06/10 10:05:02;;;;;;;4.00;1.80;;;;;;;23.06;48.14;98893.31;5054048;28;20573;-75
2022/06/10 10:07:37;;;;;;;3.63;1.63;;;;;;;23.25;47.84;98879.53;5051165;28;20214;-76
2022/06/10 10:10:15;;;;;;;3.87;1.67;;;;;;;23.25;44.54;98884.06;5054431;28;20218;-76
2022/06/10 10:12:49;;;;;;;2.83;1.70;;;;;;;23.36;48.45;98889.97;5053592;28;20667;-76
2022/06/10 10:15:29;;;;;;;2.37;1.50;;;;;;;23.52;46.56;98884.59;5053598;28;20250;-76
2022/06/10 10:18:22;;;;;;;2.87;1.60;;;;;;;23.53;44.46;98875.47;5054201;28;20218;-78
2022/06/10 10:21:05;;;;;;;4.83;1.93;;;;;;;23.68;44.32;98879.19;5054249;28;20291;-76
2022/06/10 10:23:35;;;;;;;3.13;2.00;;;;;;;23.87;46.29;98875.28;5053883;28;20209;-76
2022/06/10 10:26:06;;;;;;;4.00;1.90;;;;;;;23.97;43.52;98866.03;5054002;28;20215;-77
2022/06/10 10:28:37;;;;;;;4.30;1.97;;;;;;;24.12;45.25;98871.53;5053912;28;20219;-75
2022/06/10 10:31:21;;;;;;;3.07;1.33;;;;;;;24.34;44.99;98866.25;5053291;28;20208;-76
2022/06/10 10:33:48;;;;;;;2.40;1.40;;;;;;;24.32;44.24;98868.25;5051760;28;20234;-76
2022/06/10 10:36:24;;;;;;;3.60;1.37;;;;;;;24.25;40.41;98856.47;5053115;28;20748;-76
2022/06/10 10:38:52;;;;;;;3.43;1.37;;;;;;;24.08;41.12;98862.94;5053742;28;20236;-76
2022/06/10 10:41:31;;;;;;;3.60;1.40;;;;;;;24.12;41.92;98875.09;5053644;28;20208;-76
2022/06/10 10:44:00;;;;;;;3.43;1.60;;;;;;;24.12;42.71;98872.41;5053330;28;20661;-76
2022/06/10 10:46:35;;;;;;;3.20;1.70;;;;;;;24.08;42.09;98862.94;5053317;28;20303;-76
2022/06/10 10:49:05;;;;;;;3.50;2.20;;;;;;;23.90;45.30;98864.19;5053600;28;20204;-76
2022/06/10 10:51:37;;;;;;;4.27;2.23;;;;;;;23.72;45.69;98864.31;5053281;28;20210;-76
2022/06/10 10:54:08;;;;;;;3.00;2.10;;;;;;;23.61;44.74;98867.41;5052948;28;20243;-77
2022/06/10 10:56:39;;;;;;;5.27;2.23;;;;;;;23.39;45.48;98869.91;5053586;28;20281;-76
2022/06/10 10:59:20;;;;;;;4.83;1.87;;;;;;;23.17;45.92;98863.31;5051314;28;20258;-76
2022/06/10 11:01:51;;;;;;;4.90;2.47;;;;;;;23.06;46.84;98869.03;5052115;28;20208;-76
2022/06/10 11:04:25;;;;;;;2.30;1.90;;;;;;;23.08;47.54;98864.31;5053404;28;20211;-76
2022/06/10 11:06:59;;;;;;;4.43;2.10;;;;;;;23.13;47.35;98867.34;5052976;28;20203;-76
2022/06/10 11:09:27;;;;;;;4.70;2.00;;;;;;;23.08;46.03;98861.59;5053121;28;20731;-76
2022/06/10 11:11:56;;;;;;;3.43;1.93;;;;;;;22.86;45.47;98853.31;5053163;28;20208;-75
2022/06/10 11:14:27;;;;;;;2.67;1.67;;;;;;;22.84;45.36;98850.78;5052685;28;20236;-78
2022/06/10 11:17:03;;;;;;;6.37;2.10;;;;;;;23.04;46.87;98857.53;5052878;28;20212;-77
2022/06/10 11:19:44;;;;;;;2.83;1.67;;;;;;;23.25;46.08;98855.25;5056031;28;20261;-76
2022/06/10 11:22:19;;;;;;;3.37;1.70;;;;;;;23.30;43.95;98852.91;5056863;28;20208;-76
2022/06/10 11:24:50;;;;;;;2.87;1.57;;;;;;;23.43;44.79;98847.84;5055635;28;20257;-76
2022/06/10 11:27:23;;;;;;;5.97;1.80;;;;;;;23.41;43.99;98849.84;5057244;28;20291;-77
2022/06/10 11:30:02;;;;;;;3.40;1.50;;;;;;;23.49;45.31;98852.56;5057188;28;20219;-76
2022/06/10 11:32:35;;;;;;;3.10;1.60;;;;;;;23.59;46.23;98852.38;5056735;28;20573;-75
2022/06/10 11:35:05;;;;;;;1.47;1.33;;;;;;;23.65;44.17;98849.84;5056732;28;20231;-75
2022/06/10 11:37:36;;;;;;;2.73;1.50;;;;;;;23.70;44.83;98850.16;5057178;28;20243;-77
2022/06/10 11:40:13;;;;;;;2.50;1.70;;;;;;;23.79;45.44;98854.56;5057372;28;20208;-76
2022/06/10 11:42:47;;;;;;;3.33;2.00;;;;;;;23.91;43.86;98847.81;5056661;28;20218;-76
2022/06/10 11:45:20;;;;;;;2.83;1.70;;;;;;;23.88;43.04;98847.28;5056728;28;20211;-76
2022/06/10 11:47:56;;;;;;;2.67;1.87;;;;;;;23.60;43.30;98846.78;5056730;28;20208;-76
2022/06/10 11:50:30;;;;;;;3.87;1.90;;;;;;;23.54;42.51;98839.38;5054814;28;20211;-76
2022/06/10 11:53:06;;;;;;;2.50;1.60;;;;;;;23.49;43.93;98836.38;5056479;28;20215;-75
2022/06/10 11:55:36;;;;;;;3.60;1.80;;;;;;;23.69;44.68;98826.88;5056568;28;20236;-77
2022/06/10 12:00:59;;;;;;;3.13;1.80;;;;;;;23.82;42.05;98832.59;5056158;28;20227;-76
2022/06/10 12:03:31;;;;;;;3.90;1.80;;;;;;;23.84;44.68;98829.72;5056102;28;20203;-76
2022/06/10 12:06:04;;;;;;;2.77;1.80;;;;;;;24.00;43.40;98830.56;5056589;28;20203;-76